Terminal Aerodrome Forecast
Issued by NWS

Home | Current Version | Previous Version | Text Only | Print | Product List | Glossary On
Versions: 1 2 3 4 5 6 7 8 9 10 11 12 13 14 15 16
000
FTUS44 KMAF 281724
TAFFST
TAF
KFST 281724Z 2818/2918 12009KT P6SM BKN060 BKN100
      TEMPO 2822/2902 VRB25G35KT 4SM TSRA BKN040CB
     FM290200 10006KT P6SM BKN050 BKN100
      TEMPO 2902/2906 VRB20G30KT 4SM TSRA BKN040CB
     FM290600 09007KT P6SM BKN050 BKN100
      TEMPO 2906/2910 4SM TSRA BR OVC030CB=

USA.gov is the U.S. government's official web portal to all federal, state and local government web resources and services.